Time,TemperatureF,DewpointF,PressureIn,WindDirection,WindDirectionDegrees,WindSpeedMPH,WindSpeedGustMPH,Humidity,HourlyPrecipIn,Conditions,Clouds,dailyrainin,SoftwareType,DateUTC
2013-03-08 00:09:00,17.5,14.0,30.46,North,354,0.0,1.0,86,0.00,,,0.00,weatherlink.com 1.10,2013-03-08 05:09:00,
2013-03-08 00:24:00,17.3,14.0,30.46,North,354,0.0,1.0,87,0.00,,,0.00,weatherlink.com 1.10,2013-03-08 05:24:00,
2013-03-08 00:39:00,17.2,14.0,30.45,North,354,0.0,0.0,88,0.00,,,0.00,weatherlink.com 1.10,2013-03-08 05:39:00,
2013-03-08 00:54:00,16.3,13.0,30.46,North,354,0.0,0.0,87,0.00,,,0.00,weatherlink.com 1.10,2013-03-08 05:54:00,
2013-03-08 01:09:00,15.8,13.0,30.46,North,356,0.0,1.0,88,0.00,,,0.00,weatherlink.com 1.10,2013-03-08 06:09:00,
2013-03-08 01:24:00,15.4,13.0,30.47,SE,135,0.0,1.0,89,0.00,,,0.00,weatherlink.com 1.10,2013-03-08 06:24:00,
2013-03-08 01:39:00,15.6,13.0,30.47,SE,135,0.0,1.0,90,0.00,,,0.00,weatherlink.com 1.10,2013-03-08 06:39:00,
2013-03-08 01:54:00,15.9,13.0,30.48,SE,135,0.0,0.0,89,0.00,,,0.00,weatherlink.com 1.10,2013-03-08 06:54:00,
2013-03-08 02:09:00,15.7,13.0,30.48,SE,135,0.0,0.0,89,0.00,,,0.00,weatherlink.com 1.10,2013-03-08 07:09:00,
2013-03-08 02:24:00,15.2,13.0,30.48,SE,135,0.0,0.0,89,0.00,,,0.00,weatherlink.com 1.10,2013-03-08 07:24:00,
2013-03-08 02:39:00,14.7,12.0,30.48,SE,136,0.0,0.0,89,0.00,,,0.00,weatherlink.com 1.10,2013-03-08 07:39:00,
2013-03-08 02:54:00,13.9,11.0,30.49,SE,135,0.0,0.0,89,0.00,,,0.00,weatherlink.com 1.10,2013-03-08 07:54:00,
2013-03-08 03:09:00,14.1,12.0,30.49,SE,135,0.0,0.0,91,0.00,,,0.00,weatherlink.com 1.10,2013-03-08 08:09:00,
2013-03-08 03:24:00,14.5,12.0,30.49,SSE,149,0.0,1.0,91,0.00,,,0.00,weatherlink.com 1.10,2013-03-08 08:24:00,
2013-03-08 03:39:00,13.9,12.0,30.49,SSE,150,0.0,0.0,90,0.00,,,0.00,weatherlink.com 1.10,2013-03-08 08:39:00,
2013-03-08 03:54:00,12.9,11.0,30.49,SSE,150,0.0,0.0,90,0.00,,,0.00,weatherlink.com 1.10,2013-03-08 08:54:00,
2013-03-08 04:09:00,12.8,11.0,30.49,SSE,149,0.0,0.0,91,0.00,,,0.00,weatherlink.com 1.10,2013-03-08 09:09:00,
2013-03-08 04:24:00,12.8,11.0,30.48,SSE,150,0.0,0.0,91,0.00,,,0.00,weatherlink.com 1.10,2013-03-08 09:24:00,
2013-03-08 04:39:00,12.9,11.0,30.48,SSE,150,0.0,0.0,91,0.00,,,0.00,weatherlink.com 1.10,2013-03-08 09:39:00,
2013-03-08 04:54:00,12.5,10.0,30.48,SSE,149,0.0,0.0,90,0.00,,,0.00,weatherlink.com 1.10,2013-03-08 09:54:00,
2013-03-08 05:09:00,11.9,10.0,30.49,SSE,150,0.0,0.0,90,0.00,,,0.00,weatherlink.com 1.10,2013-03-08 10:09:00,
2013-03-08 05:24:00,11.4,9.0,30.49,SSE,150,0.0,0.0,90,0.00,,,0.00,weatherlink.com 1.10,2013-03-08 10:24:00,
2013-03-08 05:39:00,11.1,9.0,30.49,SSE,150,0.0,0.0,90,0.00,,,0.00,weatherlink.com 1.10,2013-03-08 10:39:00,
2013-03-08 05:54:00,10.8,9.0,30.50,SSE,150,0.0,0.0,90,0.00,,,0.00,weatherlink.com 1.10,2013-03-08 10:54:00,
2013-03-08 06:09:00,10.8,9.0,30.50,SSE,150,0.0,0.0,90,0.00,,,0.00,weatherlink.com 1.10,2013-03-08 11:09:00,
2013-03-08 06:24:00,10.5,8.0,30.50,SSE,150,0.0,0.0,90,0.00,,,0.00,weatherlink.com 1.10,2013-03-08 11:24:00,
2013-03-08 06:39:00,10.4,8.0,30.51,SSE,150,0.0,0.0,90,0.00,,,0.00,weatherlink.com 1.10,2013-03-08 11:39:00,
2013-03-08 06:54:00,10.6,8.0,30.51,SSE,150,0.0,0.0,90,0.00,,,0.00,weatherlink.com 1.10,2013-03-08 11:54:00,
2013-03-08 07:09:00,10.5,8.0,30.52,SSE,150,0.0,0.0,90,0.00,,,0.00,weatherlink.com 1.10,2013-03-08 12:09:00,
2013-03-08 07:24:00,10.4,8.0,30.52,SSE,150,0.0,0.0,90,0.00,,,0.00,weatherlink.com 1.10,2013-03-08 12:24:00,
2013-03-08 07:39:00,10.5,8.0,30.52,SSE,150,0.0,0.0,90,0.00,,,0.00,weatherlink.com 1.10,2013-03-08 12:39:00,
2013-03-08 07:55:00,10.3,8.0,30.53,SSE,150,0.0,0.0,89,0.00,,,0.00,weatherlink.com 1.10,2013-03-08 12:55:00,
2013-03-08 08:10:00,10.4,8.0,30.53,SSE,150,0.0,1.0,90,0.00,,,0.00,weatherlink.com 1.10,2013-03-08 13:10:00,
2013-03-08 08:25:00,11.2,9.0,30.54,SSE,150,0.0,0.0,90,0.00,,,0.00,weatherlink.com 1.10,2013-03-08 13:25:00,
2013-03-08 08:40:00,13.0,11.0,30.54,SSE,148,0.0,0.0,91,0.00,,,0.00,weatherlink.com 1.10,2013-03-08 13:40:00,
2013-03-08 08:55:00,13.1,11.0,30.54,SSE,148,0.0,0.0,89,0.00,,,0.00,weatherlink.com 1.10,2013-03-08 13:55:00,
2013-03-08 09:10:00,14.8,12.0,30.54,SSE,148,0.0,1.0,90,0.00,,,0.00,weatherlink.com 1.10,2013-03-08 14:10:00,
2013-03-08 09:25:00,17.1,15.0,30.54,SSE,148,0.0,0.0,91,0.00,,,0.00,weatherlink.com 1.10,2013-03-08 14:25:00,
2013-03-08 09:40:00,19.7,17.0,30.53,SSE,148,0.0,0.0,88,0.00,,,0.00,weatherlink.com 1.10,2013-03-08 14:40:00,
2013-03-08 09:55:00,21.1,17.0,30.53,SSE,148,0.0,1.0,84,0.00,,,0.00,weatherlink.com 1.10,2013-03-08 14:55:00,
2013-03-08 10:10:00,22.6,18.0,30.52,NNW,345,1.0,2.0,81,0.00,,,0.00,weatherlink.com 1.10,2013-03-08 15:10:00,
2013-03-08 10:25:00,22.3,18.0,30.52,NNW,342,1.0,2.0,84,0.00,,,0.00,weatherlink.com 1.10,2013-03-08 15:25:00,
2013-03-08 10:40:00,25.9,21.0,30.51,SW,228,0.0,2.0,82,0.00,,,0.00,weatherlink.com 1.10,2013-03-08 15:40:00,
2013-03-08 10:55:00,28.3,22.0,30.51,NNW,336,2.0,4.0,76,0.00,,,0.00,weatherlink.com 1.10,2013-03-08 15:55:00,
2013-03-08 11:10:00,26.9,22.0,30.51,WNW,301,2.0,4.0,80,0.00,,,0.00,weatherlink.com 1.10,2013-03-08 16:10:00,
2013-03-08 11:25:00,26.9,22.0,30.50,NW,314,4.0,4.0,82,0.00,,,0.00,weatherlink.com 1.10,2013-03-08 16:25:00,
2013-03-08 11:40:00,28.1,24.0,30.49,NNW,329,2.0,4.0,83,0.00,,,0.00,weatherlink.com 1.10,2013-03-08 16:40:00,
2013-03-08 11:55:00,29.4,23.0,30.49,NW,325,2.0,5.0,78,0.00,,,0.00,weatherlink.com 1.10,2013-03-08 16:55:00,
2013-03-08 12:10:00,30.8,24.0,30.49,NW,315,4.0,5.0,75,0.00,,,0.00,weatherlink.com 1.10,2013-03-08 17:10:00,
2013-03-08 12:25:00,31.2,24.0,30.49,North,355,3.0,5.0,74,0.00,,,0.00,weatherlink.com 1.10,2013-03-08 17:25:00,
2013-03-08 12:40:00,31.1,25.0,30.49,NNW,343,5.0,5.0,78,0.00,,,0.00,weatherlink.com 1.10,2013-03-08 17:40:00,
2013-03-08 12:55:00,31.4,25.0,30.48,NNW,338,4.0,6.0,77,0.00,,,0.00,weatherlink.com 1.10,2013-03-08 17:55:00,
2013-03-08 13:10:00,31.7,25.0,30.47,North,357,5.0,6.0,76,0.00,,,0.00,weatherlink.com 1.10,2013-03-08 18:10:00,
2013-03-08 13:25:00,31.9,25.0,30.46,NNW,345,5.0,6.0,76,0.00,,,0.00,weatherlink.com 1.10,2013-03-08 18:25:00,
2013-03-08 13:40:00,32.4,25.0,30.46,North,349,4.0,5.0,75,0.00,,,0.00,weatherlink.com 1.10,2013-03-08 18:40:00,
2013-03-08 13:55:00,32.7,26.0,30.45,North,356,4.0,6.0,75,0.00,,,0.00,weatherlink.com 1.10,2013-03-08 18:55:00,
2013-03-08 14:10:00,33.5,25.0,30.45,North,9,5.0,5.0,72,0.00,,,0.00,weatherlink.com 1.10,2013-03-08 19:10:00,
2013-03-08 14:25:00,33.3,26.0,30.45,North,356,4.0,5.0,74,0.00,,,0.00,weatherlink.com 1.10,2013-03-08 19:25:00,
2013-03-08 14:41:00,34.0,25.0,30.44,NNW,329,3.0,4.0,70,0.00,,,0.00,weatherlink.com 1.10,2013-03-08 19:41:00,
2013-03-08 14:56:00,33.3,26.0,30.44,North,357,6.0,7.0,73,0.00,,,0.00,weatherlink.com 1.10,2013-03-08 19:56:00,
2013-03-08 15:11:00,33.3,25.0,30.44,NNW,347,5.0,6.0,72,0.00,,,0.00,weatherlink.com 1.10,2013-03-08 20:11:00,
2013-03-08 15:26:00,34.4,25.0,30.44,North,6,4.0,5.0,68,0.00,,,0.00,weatherlink.com 1.10,2013-03-08 20:26:00,
2013-03-08 15:41:00,34.6,25.0,30.44,North,4,1.0,4.0,69,0.00,,,0.00,weatherlink.com 1.10,2013-03-08 20:41:00,
2013-03-08 15:56:00,36.7,24.0,30.43,North,9,1.0,2.0,60,0.00,,,0.00,weatherlink.com 1.10,2013-03-08 20:56:00,
2013-03-08 16:11:00,37.1,23.0,30.43,North,358,4.0,5.0,57,0.00,,,0.00,weatherlink.com 1.10,2013-03-08 21:11:00,
2013-03-08 16:26:00,33.7,26.0,30.42,NNW,327,8.0,10.0,72,0.00,,,0.00,weatherlink.com 1.10,2013-03-08 21:26:00,
2013-03-08 16:41:00,32.0,26.0,30.42,NNW,347,8.0,11.0,78,0.00,,,0.00,weatherlink.com 1.10,2013-03-08 21:41:00,
2013-03-08 16:56:00,31.4,26.0,30.42,NNW,330,7.0,9.0,79,0.00,,,0.00,weatherlink.com 1.10,2013-03-08 21:56:00,
2013-03-08 17:11:00,30.8,26.0,30.43,NNW,340,5.0,9.0,81,0.00,,,0.00,weatherlink.com 1.10,2013-03-08 22:11:00,
2013-03-08 17:26:00,30.0,25.0,30.43,NNW,338,5.0,7.0,82,0.00,,,0.00,weatherlink.com 1.10,2013-03-08 22:26:00,
2013-03-08 17:41:00,29.5,24.0,30.43,North,351,6.0,7.0,81,0.00,,,0.00,weatherlink.com 1.10,2013-03-08 22:41:00,
2013-03-08 17:56:00,29.2,24.0,30.42,North,352,2.0,3.0,82,0.00,,,0.00,weatherlink.com 1.10,2013-03-08 22:56:00,
2013-03-08 18:26:00,27.5,23.0,30.43,NNW,342,2.0,3.0,83,0.00,,,0.00,weatherlink.com 1.10,2013-03-08 23:26:00,
2013-03-08 18:41:00,27.9,23.0,30.42,NNE,23,0.0,1.0,83,0.00,,,0.00,weatherlink.com 1.10,2013-03-08 23:41:00,
2013-03-08 18:56:00,28.0,24.0,30.42,NNE,23,0.0,1.0,84,0.00,,,0.00,weatherlink.com 1.10,2013-03-08 23:56:00,
2013-03-08 19:11:00,28.1,24.0,30.41,NNE,23,0.0,1.0,84,0.00,,,0.00,weatherlink.com 1.10,2013-03-09 00:11:00,
2013-03-08 19:26:00,27.7,24.0,30.42,NNE,23,0.0,0.0,84,0.00,,,0.00,weatherlink.com 1.10,2013-03-09 00:26:00,
2013-03-08 19:41:00,26.6,23.0,30.41,NW,306,0.0,1.0,85,0.00,,,0.00,weatherlink.com 1.10,2013-03-09 00:41:00,
2013-03-08 19:56:00,26.3,23.0,30.42,NW,307,0.0,0.0,87,0.00,,,0.00,weatherlink.com 1.10,2013-03-09 00:56:00,
2013-03-08 20:11:00,26.4,23.0,30.42,NW,306,0.0,0.0,87,0.00,,,0.00,weatherlink.com 1.10,2013-03-09 01:11:00,
2013-03-08 20:26:00,26.1,23.0,30.42,NW,306,0.0,0.0,87,0.00,,,0.00,weatherlink.com 1.10,2013-03-09 01:26:00,
2013-03-08 20:41:00,25.8,23.0,30.42,NW,307,0.0,1.0,87,0.00,,,0.00,weatherlink.com 1.10,2013-03-09 01:41:00,
2013-03-08 20:56:00,25.8,23.0,30.42,NW,306,0.0,1.0,88,0.00,,,0.00,weatherlink.com 1.10,2013-03-09 01:56:00,
2013-03-08 21:11:00,25.7,23.0,30.42,NW,306,0.0,0.0,88,0.00,,,0.00,weatherlink.com 1.10,2013-03-09 02:11:00,
2013-03-08 21:26:00,25.5,23.0,30.42,NW,306,0.0,0.0,88,0.00,,,0.00,weatherlink.com 1.10,2013-03-09 02:26:00,
2013-03-08 21:41:00,25.1,22.0,30.42,NW,306,0.0,0.0,89,0.00,,,0.00,weatherlink.com 1.10,2013-03-09 02:41:00,
2013-03-08 21:56:00,25.0,22.0,30.42,NW,307,0.0,0.0,89,0.00,,,0.00,weatherlink.com 1.10,2013-03-09 02:56:00,
2013-03-08 22:11:00,24.6,22.0,30.42,NW,306,0.0,0.0,89,0.00,,,0.00,weatherlink.com 1.10,2013-03-09 03:11:00,
2013-03-08 22:26:00,23.8,21.0,30.42,NW,307,0.0,0.0,90,0.00,,,0.00,weatherlink.com 1.10,2013-03-09 03:26:00,
2013-03-08 22:41:00,23.4,21.0,30.42,NW,306,0.0,0.0,91,0.00,,,0.00,weatherlink.com 1.10,2013-03-09 03:41:00,
2013-03-08 22:56:00,22.8,21.0,30.41,NW,306,0.0,0.0,91,0.00,,,0.00,weatherlink.com 1.10,2013-03-09 03:56:00,
2013-03-08 23:11:00,23.1,21.0,30.41,NW,307,0.0,0.0,91,0.00,,,0.00,weatherlink.com 1.10,2013-03-09 04:11:00,
2013-03-08 23:26:00,22.6,20.0,30.40,NW,307,0.0,0.0,91,0.00,,,0.00,weatherlink.com 1.10,2013-03-09 04:26:00,
2013-03-08 23:41:00,21.9,20.0,30.39,NW,306,0.0,0.0,91,0.00,,,0.00,weatherlink.com 1.10,2013-03-09 04:41:00,
2013-03-08 23:56:00,21.3,19.0,30.39,NW,306,0.0,0.0,91,0.00,,,0.00,weatherlink.com 1.10,2013-03-09 04:56:00,